Disclaimer

Please do not use the information listed here in-flight or in-navigation, as they are not provided to us by the airports but are provided by volunteers, so they might be outdated.

Search


Regions


Airport information page

Radio informations:
Tower (TWR) - 129.0 MHz

Airport informations:
Latitude: 49° 40' 30.62" N
Longitude: 013° 16' 28.62" E
Elevation: 1188 feet - 362 meters
Operating hours: N/A
Operating agency: Civil government, landing fees and diplomatic clearance may be required
Timezone: UTC+1(+2DT)
Fuel: N/A

Runway information:
06/24 - 4757 x 197 feet< - >1450 x 60 meters

Recent METARs:
LKLN 210251Z AUTO 04004KT 340V080 4800 BR BKN004 OVC019 01/01 Q1013
LKLN 210300Z AUTO 04004KT 340V080 4800 BR BKN004 OVC019 01/01 Q1013
LKLN 210400Z AUTO 05004KT 010V080 4000 BR OVC004 01/01 Q1013

Airport on the map: